sensor_id;sensor_type;location;lat;lon;timestamp;P1;durP1;ratioP1;P2;durP2;ratioP2
31694;SDS011;18289;51.330;4.946;2022-10-31T00:00:42;14.93;;;10.15;;
31694;SDS011;18289;51.330;4.946;2022-10-31T00:03:08;13.02;;;9.43;;
31694;SDS011;18289;51.330;4.946;2022-10-31T00:05:34;11.57;;;9.48;;
31694;SDS011;18289;51.330;4.946;2022-10-31T00:07:59;15.00;;;12.00;;
31694;SDS011;18289;51.330;4.946;2022-10-31T00:10:25;14.65;;;11.15;;
31694;SDS011;18289;51.330;4.946;2022-10-31T00:12:51;14.65;;;11.15;;
31694;SDS011;18289;51.330;4.946;2022-10-31T00:15:17;15.60;;;11.63;;
31694;SDS011;18289;51.330;4.946;2022-10-31T00:17:42;18.50;;;11.70;;
31694;SDS011;18289;51.330;4.946;2022-10-31T00:20:08;16.65;;;10.63;;
31694;SDS011;18289;51.330;4.946;2022-10-31T00:22:34;14.23;;;11.15;;
31694;SDS011;18289;51.330;4.946;2022-10-31T00:25:00;12.15;;;9.85;;
31694;SDS011;18289;51.330;4.946;2022-10-31T00:27:25;15.25;;;11.27;;
31694;SDS011;18289;51.330;4.946;2022-10-31T00:29:51;13.95;;;10.75;;
31694;SDS011;18289;51.330;4.946;2022-10-31T00:32:16;16.30;;;10.75;;
31694;SDS011;18289;51.330;4.946;2022-10-31T00:34:42;14.13;;;10.90;;
31694;SDS011;18289;51.330;4.946;2022-10-31T00:37:08;16.77;;;10.52;;
31694;SDS011;18289;51.330;4.946;2022-10-31T00:39:33;12.50;;;9.57;;
31694;SDS011;18289;51.330;4.946;2022-10-31T00:41:59;13.18;;;10.45;;
31694;SDS011;18289;51.330;4.946;2022-10-31T00:44:25;15.77;;;10.65;;
31694;SDS011;18289;51.330;4.946;2022-10-31T00:46:50;17.52;;;11.65;;
31694;SDS011;18289;51.330;4.946;2022-10-31T00:49:16;13.18;;;10.73;;
31694;SDS011;18289;51.330;4.946;2022-10-31T00:51:42;18.35;;;11.90;;
31694;SDS011;18289;51.330;4.946;2022-10-31T00:54:07;15.45;;;10.98;;
31694;SDS011;18289;51.330;4.946;2022-10-31T00:56:33;16.88;;;12.55;;
31694;SDS011;18289;51.330;4.946;2022-10-31T00:58:59;15.63;;;11.40;;
31694;SDS011;18289;51.330;4.946;2022-10-31T01:01:24;16.05;;;10.77;;
31694;SDS011;18289;51.330;4.946;2022-10-31T01:03:50;15.95;;;11.18;;
31694;SDS011;18289;51.330;4.946;2022-10-31T01:06:16;14.10;;;10.70;;
31694;SDS011;18289;51.330;4.946;2022-10-31T01:08:41;18.80;;;12.35;;
31694;SDS011;18289;51.330;4.946;2022-10-31T01:11:12;16.33;;;11.73;;
31694;SDS011;18289;51.330;4.946;2022-10-31T01:13:43;16.80;;;12.05;;
31694;SDS011;18289;51.330;4.946;2022-10-31T01:16:10;18.85;;;12.88;;
31694;SDS011;18289;51.330;4.946;2022-10-31T01:18:38;16.13;;;11.75;;
31694;SDS011;18289;51.330;4.946;2022-10-31T01:21:08;13.90;;;11.77;;
31694;SDS011;18289;51.330;4.946;2022-10-31T01:23:45;19.88;;;12.65;;
31694;SDS011;18289;51.330;4.946;2022-10-31T01:26:12;17.20;;;13.30;;
31694;SDS011;18289;51.330;4.946;2022-10-31T01:28:43;14.25;;;11.45;;
31694;SDS011;18289;51.330;4.946;2022-10-31T01:31:11;16.38;;;12.07;;
31694;SDS011;18289;51.330;4.946;2022-10-31T01:33:37;20.63;;;14.07;;
31694;SDS011;18289;51.330;4.946;2022-10-31T01:38:38;21.08;;;13.13;;
31694;SDS011;18289;51.330;4.946;2022-10-31T01:41:04;21.00;;;13.95;;
31694;SDS011;18289;51.330;4.946;2022-10-31T01:46:15;23.27;;;13.52;;
31694;SDS011;18289;51.330;4.946;2022-10-31T01:48:58;18.52;;;12.80;;
31694;SDS011;18289;51.330;4.946;2022-10-31T01:51:28;18.75;;;14.38;;
31694;SDS011;18289;51.330;4.946;2022-10-31T01:53:58;17.98;;;13.45;;
31694;SDS011;18289;51.330;4.946;2022-10-31T01:56:27;21.45;;;14.63;;
31694;SDS011;18289;51.330;4.946;2022-10-31T01:58:53;23.17;;;14.90;;
31694;SDS011;18289;51.330;4.946;2022-10-31T02:01:21;15.18;;;12.82;;
31694;SDS011;18289;51.330;4.946;2022-10-31T02:03:47;18.85;;;14.68;;
31694;SDS011;18289;51.330;4.946;2022-10-31T02:06:46;21.92;;;14.63;;
31694;SDS011;18289;51.330;4.946;2022-10-31T02:09:12;20.45;;;14.25;;
31694;SDS011;18289;51.330;4.946;2022-10-31T02:11:39;25.20;;;14.40;;
31694;SDS011;18289;51.330;4.946;2022-10-31T02:14:06;26.02;;;16.90;;
31694;SDS011;18289;51.330;4.946;2022-10-31T02:16:32;24.42;;;16.33;;
31694;SDS011;18289;51.330;4.946;2022-10-31T02:18:57;22.52;;;15.77;;
31694;SDS011;18289;51.330;4.946;2022-10-31T02:21:26;21.98;;;14.48;;
31694;SDS011;18289;51.330;4.946;2022-10-31T02:27:11;23.58;;;16.00;;
31694;SDS011;18289;51.330;4.946;2022-10-31T02:30:00;22.33;;;14.50;;
31694;SDS011;18289;51.330;4.946;2022-10-31T02:35:25;21.95;;;15.70;;
31694;SDS011;18289;51.330;4.946;2022-10-31T02:38:13;21.15;;;13.93;;
31694;SDS011;18289;51.330;4.946;2022-10-31T02:40:49;16.92;;;13.13;;
31694;SDS011;18289;51.330;4.946;2022-10-31T02:48:54;19.63;;;14.43;;
31694;SDS011;18289;51.330;4.946;2022-10-31T02:51:25;23.05;;;15.43;;
31694;SDS011;18289;51.330;4.946;2022-10-31T02:53:52;18.30;;;14.27;;
31694;SDS011;18289;51.330;4.946;2022-10-31T02:56:19;20.95;;;15.55;;
31694;SDS011;18289;51.330;4.946;2022-10-31T02:58:46;20.45;;;14.13;;
31694;SDS011;18289;51.330;4.946;2022-10-31T03:06:45;24.40;;;14.98;;
31694;SDS011;18289;51.330;4.946;2022-10-31T03:11:58;23.45;;;15.30;;
31694;SDS011;18289;51.330;4.946;2022-10-31T03:14:35;20.73;;;14.65;;
31694;SDS011;18289;51.330;4.946;2022-10-31T03:17:07;23.92;;;14.80;;
31694;SDS011;18289;51.330;4.946;2022-10-31T03:19:40;20.45;;;13.98;;
31694;SDS011;18289;51.330;4.946;2022-10-31T03:22:10;19.67;;;13.27;;
31694;SDS011;18289;51.330;4.946;2022-10-31T03:24:42;19.65;;;15.40;;
31694;SDS011;18289;51.330;4.946;2022-10-31T03:27:10;19.67;;;13.50;;
31694;SDS011;18289;51.330;4.946;2022-10-31T03:29:38;22.58;;;15.23;;
31694;SDS011;18289;51.330;4.946;2022-10-31T03:32:15;21.00;;;15.20;;
31694;SDS011;18289;51.330;4.946;2022-10-31T03:34:45;20.98;;;13.77;;
31694;SDS011;18289;51.330;4.946;2022-10-31T03:37:11;23.15;;;14.77;;
31694;SDS011;18289;51.330;4.946;2022-10-31T03:39:42;20.95;;;14.95;;
31694;SDS011;18289;51.330;4.946;2022-10-31T03:42:11;21.77;;;14.05;;
31694;SDS011;18289;51.330;4.946;2022-10-31T03:44:46;21.27;;;13.82;;
31694;SDS011;18289;51.330;4.946;2022-10-31T03:47:16;23.48;;;14.07;;
31694;SDS011;18289;51.330;4.946;2022-10-31T03:49:42;18.10;;;13.82;;
31694;SDS011;18289;51.330;4.946;2022-10-31T03:52:12;20.30;;;13.77;;
31694;SDS011;18289;51.330;4.946;2022-10-31T03:54:45;17.92;;;13.43;;
31694;SDS011;18289;51.330;4.946;2022-10-31T03:57:34;16.05;;;12.80;;
31694;SDS011;18289;51.330;4.946;2022-10-31T04:00:06;16.17;;;13.15;;
31694;SDS011;18289;51.330;4.946;2022-10-31T04:02:36;20.58;;;13.35;;
31694;SDS011;18289;51.330;4.946;2022-10-31T04:05:06;18.58;;;12.98;;
31694;SDS011;18289;51.330;4.946;2022-10-31T04:07:34;18.85;;;13.77;;
31694;SDS011;18289;51.330;4.946;2022-10-31T04:10:04;17.13;;;12.68;;
31694;SDS011;18289;51.330;4.946;2022-10-31T04:12:32;19.65;;;14.10;;
31694;SDS011;18289;51.330;4.946;2022-10-31T04:15:01;18.48;;;13.40;;
31694;SDS011;18289;51.330;4.946;2022-10-31T04:17:29;16.73;;;13.50;;
31694;SDS011;18289;51.330;4.946;2022-10-31T04:19:59;23.35;;;14.85;;
31694;SDS011;18289;51.330;4.946;2022-10-31T04:22:25;20.15;;;14.43;;
31694;SDS011;18289;51.330;4.946;2022-10-31T04:24:51;19.27;;;14.23;;
31694;SDS011;18289;51.330;4.946;2022-10-31T04:27:16;13.52;;;11.07;;
31694;SDS011;18289;51.330;4.946;2022-10-31T04:29:42;14.20;;;12.10;;
31694;SDS011;18289;51.330;4.946;2022-10-31T04:32:08;19.33;;;13.45;;
31694;SDS011;18289;51.330;4.946;2022-10-31T04:34:33;21.15;;;13.98;;
31694;SDS011;18289;51.330;4.946;2022-10-31T04:36:59;16.35;;;12.38;;
31694;SDS011;18289;51.330;4.946;2022-10-31T04:39:25;16.63;;;12.98;;
31694;SDS011;18289;51.330;4.946;2022-10-31T04:41:50;15.27;;;12.77;;
31694;SDS011;18289;51.330;4.946;2022-10-31T04:44:16;17.52;;;13.30;;
31694;SDS011;18289;51.330;4.946;2022-10-31T04:46:42;18.85;;;12.90;;
31694;SDS011;18289;51.330;4.946;2022-10-31T04:49:07;18.88;;;13.93;;
31694;SDS011;18289;51.330;4.946;2022-10-31T04:51:33;18.42;;;13.77;;
31694;SDS011;18289;51.330;4.946;2022-10-31T04:53:59;19.55;;;13.10;;
31694;SDS011;18289;51.330;4.946;2022-10-31T04:56:24;21.60;;;14.38;;
31694;SDS011;18289;51.330;4.946;2022-10-31T04:58:50;22.48;;;14.25;;
31694;SDS011;18289;51.330;4.946;2022-10-31T05:01:16;19.27;;;12.88;;
31694;SDS011;18289;51.330;4.946;2022-10-31T05:03:41;17.05;;;13.45;;
31694;SDS011;18289;51.330;4.946;2022-10-31T05:06:07;18.92;;;14.63;;
31694;SDS011;18289;51.330;4.946;2022-10-31T05:08:33;19.40;;;13.30;;
31694;SDS011;18289;51.330;4.946;2022-10-31T05:10:59;16.65;;;13.30;;
31694;SDS011;18289;51.330;4.946;2022-10-31T05:13:26;18.92;;;14.32;;
31694;SDS011;18289;51.330;4.946;2022-10-31T05:15:52;18.08;;;13.50;;
31694;SDS011;18289;51.330;4.946;2022-10-31T05:18:18;19.80;;;14.55;;
31694;SDS011;18289;51.330;4.946;2022-10-31T05:20:43;18.23;;;13.32;;
31694;SDS011;18289;51.330;4.946;2022-10-31T05:23:09;23.77;;;14.30;;
31694;SDS011;18289;51.330;4.946;2022-10-31T05:25:35;20.17;;;13.40;;
31694;SDS011;18289;51.330;4.946;2022-10-31T05:28:00;26.88;;;15.93;;
31694;SDS011;18289;51.330;4.946;2022-10-31T05:30:27;20.08;;;14.07;;
31694;SDS011;18289;51.330;4.946;2022-10-31T05:32:55;19.47;;;12.77;;
31694;SDS011;18289;51.330;4.946;2022-10-31T05:35:22;18.02;;;12.70;;
31694;SDS011;18289;51.330;4.946;2022-10-31T05:37:53;14.98;;;12.38;;
31694;SDS011;18289;51.330;4.946;2022-10-31T05:40:19;22.60;;;15.98;;
31694;SDS011;18289;51.330;4.946;2022-10-31T05:42:45;21.73;;;13.93;;
31694;SDS011;18289;51.330;4.946;2022-10-31T05:45:13;21.63;;;13.55;;
31694;SDS011;18289;51.330;4.946;2022-10-31T05:47:41;19.75;;;13.80;;
31694;SDS011;18289;51.330;4.946;2022-10-31T05:50:08;20.83;;;15.20;;
31694;SDS011;18289;51.330;4.946;2022-10-31T05:52:34;21.13;;;13.80;;
31694;SDS011;18289;51.330;4.946;2022-10-31T05:55:00;20.25;;;12.98;;
31694;SDS011;18289;51.330;4.946;2022-10-31T05:57:26;25.98;;;13.88;;
31694;SDS011;18289;51.330;4.946;2022-10-31T05:59:53;24.48;;;14.30;;
31694;SDS011;18289;51.330;4.946;2022-10-31T06:02:19;21.52;;;15.23;;
31694;SDS011;18289;51.330;4.946;2022-10-31T06:04:46;24.17;;;15.70;;
31694;SDS011;18289;51.330;4.946;2022-10-31T06:07:11;27.08;;;16.15;;
31694;SDS011;18289;51.330;4.946;2022-10-31T06:09:37;29.75;;;16.40;;
31694;SDS011;18289;51.330;4.946;2022-10-31T06:12:03;26.00;;;15.45;;
31694;SDS011;18289;51.330;4.946;2022-10-31T06:14:28;22.67;;;14.88;;
31694;SDS011;18289;51.330;4.946;2022-10-31T06:16:54;22.02;;;14.73;;
31694;SDS011;18289;51.330;4.946;2022-10-31T06:19:20;24.25;;;15.98;;
31694;SDS011;18289;51.330;4.946;2022-10-31T06:21:46;21.80;;;15.32;;
31694;SDS011;18289;51.330;4.946;2022-10-31T06:24:12;21.90;;;15.02;;
31694;SDS011;18289;51.330;4.946;2022-10-31T06:26:38;24.95;;;15.77;;
31694;SDS011;18289;51.330;4.946;2022-10-31T06:29:03;22.33;;;14.98;;
31694;SDS011;18289;51.330;4.946;2022-10-31T06:31:29;22.65;;;15.40;;
31694;SDS011;18289;51.330;4.946;2022-10-31T06:33:55;25.00;;;16.45;;
31694;SDS011;18289;51.330;4.946;2022-10-31T06:36:21;26.70;;;18.75;;
31694;SDS011;18289;51.330;4.946;2022-10-31T06:38:46;29.02;;;18.58;;
31694;SDS011;18289;51.330;4.946;2022-10-31T06:41:12;26.58;;;17.48;;
31694;SDS011;18289;51.330;4.946;2022-10-31T06:43:38;29.55;;;18.33;;
31694;SDS011;18289;51.330;4.946;2022-10-31T06:46:03;33.78;;;21.42;;
31694;SDS011;18289;51.330;4.946;2022-10-31T06:48:30;30.60;;;18.60;;
31694;SDS011;18289;51.330;4.946;2022-10-31T06:50:59;28.63;;;20.23;;
31694;SDS011;18289;51.330;4.946;2022-10-31T06:53:26;38.15;;;22.17;;
31694;SDS011;18289;51.330;4.946;2022-10-31T06:55:55;33.85;;;20.13;;
31694;SDS011;18289;51.330;4.946;2022-10-31T06:58:21;33.83;;;21.38;;
31694;SDS011;18289;51.330;4.946;2022-10-31T07:00:47;29.60;;;18.52;;
31694;SDS011;18289;51.330;4.946;2022-10-31T07:03:13;32.50;;;21.45;;
31694;SDS011;18289;51.330;4.946;2022-10-31T07:05:40;31.83;;;20.20;;
31694;SDS011;18289;51.330;4.946;2022-10-31T07:08:07;28.63;;;19.85;;
31694;SDS011;18289;51.330;4.946;2022-10-31T07:10:35;35.60;;;21.20;;
31694;SDS011;18289;51.330;4.946;2022-10-31T07:13:03;30.70;;;20.15;;
31694;SDS011;18289;51.330;4.946;2022-10-31T07:15:32;32.00;;;20.02;;
31694;SDS011;18289;51.330;4.946;2022-10-31T07:17:59;26.35;;;16.75;;
31694;SDS011;18289;51.330;4.946;2022-10-31T07:20:26;30.90;;;19.20;;
31694;SDS011;18289;51.330;4.946;2022-10-31T07:22:52;24.50;;;17.05;;
31694;SDS011;18289;51.330;4.946;2022-10-31T07:25:19;28.65;;;19.15;;
31694;SDS011;18289;51.330;4.946;2022-10-31T07:27:45;23.90;;;16.67;;
31694;SDS011;18289;51.330;4.946;2022-10-31T07:30:11;28.83;;;16.90;;
31694;SDS011;18289;51.330;4.946;2022-10-31T07:35:12;27.13;;;18.45;;
31694;SDS011;18289;51.330;4.946;2022-10-31T07:37:39;27.88;;;18.55;;
31694;SDS011;18289;51.330;4.946;2022-10-31T07:40:05;28.67;;;19.17;;
31694;SDS011;18289;51.330;4.946;2022-10-31T07:42:35;26.70;;;19.55;;
31694;SDS011;18289;51.330;4.946;2022-10-31T07:45:05;31.98;;;19.33;;
31694;SDS011;18289;51.330;4.946;2022-10-31T07:47:45;28.05;;;17.83;;
31694;SDS011;18289;51.330;4.946;2022-10-31T07:50:21;31.52;;;19.70;;
31694;SDS011;18289;51.330;4.946;2022-10-31T07:52:48;25.05;;;18.17;;
31694;SDS011;18289;51.330;4.946;2022-10-31T07:55:30;24.13;;;17.25;;
31694;SDS011;18289;51.330;4.946;2022-10-31T07:57:59;28.45;;;19.35;;
31694;SDS011;18289;51.330;4.946;2022-10-31T08:00:26;27.58;;;17.90;;
31694;SDS011;18289;51.330;4.946;2022-10-31T08:02:59;26.65;;;17.23;;
31694;SDS011;18289;51.330;4.946;2022-10-31T08:05:26;29.88;;;19.52;;
31694;SDS011;18289;51.330;4.946;2022-10-31T08:07:52;26.52;;;18.80;;
31694;SDS011;18289;51.330;4.946;2022-10-31T08:10:18;31.17;;;20.25;;
31694;SDS011;18289;51.330;4.946;2022-10-31T08:12:43;30.08;;;18.80;;
31694;SDS011;18289;51.330;4.946;2022-10-31T08:15:09;30.05;;;18.70;;
31694;SDS011;18289;51.330;4.946;2022-10-31T08:17:35;27.58;;;18.33;;
31694;SDS011;18289;51.330;4.946;2022-10-31T08:20:02;30.35;;;19.67;;
31694;SDS011;18289;51.330;4.946;2022-10-31T08:22:28;30.35;;;18.95;;
31694;SDS011;18289;51.330;4.946;2022-10-31T08:24:54;23.33;;;18.13;;
31694;SDS011;18289;51.330;4.946;2022-10-31T08:27:20;27.25;;;19.30;;
31694;SDS011;18289;51.330;4.946;2022-10-31T08:29:45;30.33;;;21.95;;
31694;SDS011;18289;51.330;4.946;2022-10-31T08:32:12;27.92;;;20.77;;
31694;SDS011;18289;51.330;4.946;2022-10-31T08:34:37;24.85;;;18.58;;
31694;SDS011;18289;51.330;4.946;2022-10-31T08:37:03;27.73;;;18.58;;
31694;SDS011;18289;51.330;4.946;2022-10-31T08:39:29;29.70;;;18.55;;
31694;SDS011;18289;51.330;4.946;2022-10-31T08:41:54;25.77;;;18.60;;
31694;SDS011;18289;51.330;4.946;2022-10-31T08:44:20;25.30;;;18.08;;
31694;SDS011;18289;51.330;4.946;2022-10-31T08:46:46;25.15;;;18.48;;
31694;SDS011;18289;51.330;4.946;2022-10-31T08:49:12;25.38;;;17.92;;
31694;SDS011;18289;51.330;4.946;2022-10-31T08:51:37;20.95;;;17.50;;
31694;SDS011;18289;51.330;4.946;2022-10-31T08:54:03;24.92;;;17.52;;
31694;SDS011;18289;51.330;4.946;2022-10-31T08:56:29;24.58;;;18.10;;
31694;SDS011;18289;51.330;4.946;2022-10-31T08:58:54;28.77;;;18.83;;
31694;SDS011;18289;51.330;4.946;2022-10-31T09:01:20;29.08;;;19.10;;
31694;SDS011;18289;51.330;4.946;2022-10-31T09:03:46;28.50;;;18.65;;
31694;SDS011;18289;51.330;4.946;2022-10-31T09:06:11;24.63;;;18.77;;
31694;SDS011;18289;51.330;4.946;2022-10-31T09:08:37;28.00;;;18.67;;
31694;SDS011;18289;51.330;4.946;2022-10-31T09:11:03;28.17;;;18.00;;
31694;SDS011;18289;51.330;4.946;2022-10-31T09:13:31;20.85;;;17.00;;
31694;SDS011;18289;51.330;4.946;2022-10-31T09:15:57;27.90;;;18.50;;
31694;SDS011;18289;51.330;4.946;2022-10-31T09:18:25;28.40;;;18.75;;
31694;SDS011;18289;51.330;4.946;2022-10-31T09:20:53;21.30;;;16.30;;
31694;SDS011;18289;51.330;4.946;2022-10-31T09:23:19;23.20;;;16.50;;
31694;SDS011;18289;51.330;4.946;2022-10-31T09:25:47;25.17;;;16.25;;
31694;SDS011;18289;51.330;4.946;2022-10-31T09:28:14;22.98;;;16.77;;
31694;SDS011;18289;51.330;4.946;2022-10-31T09:30:41;20.27;;;16.15;;
31694;SDS011;18289;51.330;4.946;2022-10-31T09:33:10;21.48;;;16.30;;
31694;SDS011;18289;51.330;4.946;2022-10-31T09:38:04;21.33;;;15.60;;
31694;SDS011;18289;51.330;4.946;2022-10-31T09:43:18;23.05;;;16.05;;
31694;SDS011;18289;51.330;4.946;2022-10-31T09:52:10;27.30;;;17.53;;
31694;SDS011;18289;51.330;4.946;2022-10-31T09:54:47;24.45;;;18.10;;
31694;SDS011;18289;51.330;4.946;2022-10-31T09:57:23;23.50;;;17.33;;
31694;SDS011;18289;51.330;4.946;2022-10-31T09:59:52;24.77;;;17.77;;
31694;SDS011;18289;51.330;4.946;2022-10-31T10:04:59;26.90;;;19.10;;
31694;SDS011;18289;51.330;4.946;2022-10-31T10:10:15;29.70;;;19.75;;
31694;SDS011;18289;51.330;4.946;2022-10-31T10:21:32;24.15;;;18.00;;
31694;SDS011;18289;51.330;4.946;2022-10-31T10:24:39;31.67;;;21.48;;
31694;SDS011;18289;51.330;4.946;2022-10-31T10:29:50;29.67;;;21.15;;
31694;SDS011;18289;51.330;4.946;2022-10-31T10:32:27;27.20;;;19.88;;
31694;SDS011;18289;51.330;4.946;2022-10-31T10:34:57;26.40;;;20.35;;
31694;SDS011;18289;51.330;4.946;2022-10-31T10:37:37;28.63;;;19.35;;
31694;SDS011;18289;51.330;4.946;2022-10-31T10:40:19;29.42;;;20.75;;
31694;SDS011;18289;51.330;4.946;2022-10-31T10:45:49;26.17;;;20.58;;
31694;SDS011;18289;51.330;4.946;2022-10-31T10:51:54;27.88;;;20.52;;
31694;SDS011;18289;51.330;4.946;2022-10-31T10:57:23;31.25;;;20.13;;
31694;SDS011;18289;51.330;4.946;2022-10-31T11:00:15;24.95;;;19.42;;
31694;SDS011;18289;51.330;4.946;2022-10-31T11:02:43;31.10;;;20.60;;
31694;SDS011;18289;51.330;4.946;2022-10-31T11:05:24;29.23;;;19.30;;
31694;SDS011;18289;51.330;4.946;2022-10-31T11:07:50;27.27;;;20.48;;
31694;SDS011;18289;51.330;4.946;2022-10-31T11:10:16;32.47;;;21.00;;
31694;SDS011;18289;51.330;4.946;2022-10-31T11:12:56;30.50;;;21.17;;
31694;SDS011;18289;51.330;4.946;2022-10-31T11:15:57;30.92;;;21.50;;
31694;SDS011;18289;51.330;4.946;2022-10-31T11:18:32;29.85;;;21.55;;
31694;SDS011;18289;51.330;4.946;2022-10-31T11:21:04;35.28;;;20.77;;
31694;SDS011;18289;51.330;4.946;2022-10-31T11:23:31;28.55;;;20.98;;
31694;SDS011;18289;51.330;4.946;2022-10-31T11:25:58;32.80;;;21.35;;
31694;SDS011;18289;51.330;4.946;2022-10-31T11:28:25;35.75;;;23.23;;
31694;SDS011;18289;51.330;4.946;2022-10-31T11:31:05;36.08;;;22.98;;
31694;SDS011;18289;51.330;4.946;2022-10-31T11:33:36;28.23;;;21.55;;
31694;SDS011;18289;51.330;4.946;2022-10-31T11:36:16;31.60;;;24.65;;
31694;SDS011;18289;51.330;4.946;2022-10-31T11:38:47;42.90;;;31.80;;
31694;SDS011;18289;51.330;4.946;2022-10-31T11:41:17;30.85;;;22.35;;
31694;SDS011;18289;51.330;4.946;2022-10-31T11:43:50;33.90;;;23.85;;
31694;SDS011;18289;51.330;4.946;2022-10-31T11:46:20;30.67;;;22.70;;
31694;SDS011;18289;51.330;4.946;2022-10-31T11:48:49;33.13;;;21.60;;
31694;SDS011;18289;51.330;4.946;2022-10-31T11:51:21;29.25;;;21.92;;
31694;SDS011;18289;51.330;4.946;2022-10-31T11:53:53;31.45;;;20.77;;
31694;SDS011;18289;51.330;4.946;2022-10-31T11:56:22;32.35;;;20.02;;
31694;SDS011;18289;51.330;4.946;2022-10-31T11:58:57;25.42;;;19.17;;
31694;SDS011;18289;51.330;4.946;2022-10-31T12:01:29;27.08;;;19.30;;
31694;SDS011;18289;51.330;4.946;2022-10-31T12:04:02;31.40;;;19.63;;
31694;SDS011;18289;51.330;4.946;2022-10-31T12:06:34;24.05;;;18.42;;
31694;SDS011;18289;51.330;4.946;2022-10-31T12:09:21;27.25;;;18.38;;
31694;SDS011;18289;51.330;4.946;2022-10-31T12:39:20;23.50;;;16.02;;
31694;SDS011;18289;51.330;4.946;2022-10-31T12:44:47;22.27;;;15.93;;
31694;SDS011;18289;51.330;4.946;2022-10-31T12:47:42;21.67;;;15.77;;
31694;SDS011;18289;51.330;4.946;2022-10-31T12:55:55;21.52;;;15.57;;
31694;SDS011;18289;51.330;4.946;2022-10-31T13:01:47;20.88;;;15.27;;
31694;SDS011;18289;51.330;4.946;2022-10-31T13:04:36;20.13;;;14.60;;
31694;SDS011;18289;51.330;4.946;2022-10-31T13:07:19;26.90;;;14.75;;
31694;SDS011;18289;51.330;4.946;2022-10-31T13:12:37;23.63;;;16.00;;
31694;SDS011;18289;51.330;4.946;2022-10-31T13:15:26;22.77;;;14.63;;
31694;SDS011;18289;51.330;4.946;2022-10-31T13:18:27;24.90;;;15.25;;
31694;SDS011;18289;51.330;4.946;2022-10-31T13:21:08;21.27;;;13.80;;
31694;SDS011;18289;51.330;4.946;2022-10-31T13:23:40;20.73;;;13.98;;
31694;SDS011;18289;51.330;4.946;2022-10-31T13:26:15;20.75;;;13.73;;
31694;SDS011;18289;51.330;4.946;2022-10-31T13:28:59;17.20;;;12.45;;
31694;SDS011;18289;51.330;4.946;2022-10-31T13:31:45;20.90;;;13.13;;
31694;SDS011;18289;51.330;4.946;2022-10-31T13:34:17;21.67;;;13.25;;
31694;SDS011;18289;51.330;4.946;2022-10-31T13:36:50;19.92;;;14.20;;
31694;SDS011;18289;51.330;4.946;2022-10-31T13:42:39;20.83;;;13.68;;
31694;SDS011;18289;51.330;4.946;2022-10-31T13:45:14;21.70;;;13.25;;
31694;SDS011;18289;51.330;4.946;2022-10-31T13:47:42;20.08;;;14.02;;
31694;SDS011;18289;51.330;4.946;2022-10-31T13:50:21;22.63;;;13.82;;
31694;SDS011;18289;51.330;4.946;2022-10-31T13:52:48;19.67;;;13.30;;
31694;SDS011;18289;51.330;4.946;2022-10-31T13:58:05;19.73;;;14.07;;
31694;SDS011;18289;51.330;4.946;2022-10-31T14:00:57;19.55;;;13.23;;
31694;SDS011;18289;51.330;4.946;2022-10-31T14:03:24;20.80;;;14.32;;
31694;SDS011;18289;51.330;4.946;2022-10-31T14:05:53;19.25;;;13.65;;
31694;SDS011;18289;51.330;4.946;2022-10-31T14:08:20;20.00;;;13.27;;
31694;SDS011;18289;51.330;4.946;2022-10-31T14:10:49;20.23;;;13.48;;
31694;SDS011;18289;51.330;4.946;2022-10-31T14:13:26;23.13;;;13.57;;
31694;SDS011;18289;51.330;4.946;2022-10-31T14:16:27;19.90;;;13.82;;
31694;SDS011;18289;51.330;4.946;2022-10-31T14:21:27;24.85;;;13.05;;
31694;SDS011;18289;51.330;4.946;2022-10-31T14:23:56;18.58;;;11.95;;
31694;SDS011;18289;51.330;4.946;2022-10-31T14:28:51;18.48;;;11.50;;
31694;SDS011;18289;51.330;4.946;2022-10-31T14:39:26;19.27;;;11.85;;
31694;SDS011;18289;51.330;4.946;2022-10-31T14:53:06;15.38;;;10.25;;
31694;SDS011;18289;51.330;4.946;2022-10-31T14:55:43;14.63;;;9.52;;
31694;SDS011;18289;51.330;4.946;2022-10-31T14:58:15;12.93;;;9.45;;
31694;SDS011;18289;51.330;4.946;2022-10-31T15:00:45;15.10;;;10.48;;
31694;SDS011;18289;51.330;4.946;2022-10-31T15:03:12;19.77;;;10.50;;
31694;SDS011;18289;51.330;4.946;2022-10-31T15:05:52;17.48;;;10.32;;
31694;SDS011;18289;51.330;4.946;2022-10-31T15:08:31;15.60;;;9.95;;
31694;SDS011;18289;51.330;4.946;2022-10-31T15:11:08;15.38;;;10.02;;
31694;SDS011;18289;51.330;4.946;2022-10-31T15:13:40;13.95;;;9.32;;
31694;SDS011;18289;51.330;4.946;2022-10-31T15:16:09;12.45;;;9.32;;
31694;SDS011;18289;51.330;4.946;2022-10-31T15:18:38;15.13;;;10.20;;
31694;SDS011;18289;51.330;4.946;2022-10-31T15:21:28;14.57;;;9.10;;
31694;SDS011;18289;51.330;4.946;2022-10-31T15:23:55;13.88;;;8.90;;
31694;SDS011;18289;51.330;4.946;2022-10-31T15:26:24;16.87;;;9.80;;
31694;SDS011;18289;51.330;4.946;2022-10-31T15:29:04;17.50;;;9.07;;
31694;SDS011;18289;51.330;4.946;2022-10-31T15:31:31;18.10;;;10.05;;
31694;SDS011;18289;51.330;4.946;2022-10-31T15:34:02;16.35;;;9.27;;
31694;SDS011;18289;51.330;4.946;2022-10-31T15:36:32;15.27;;;9.02;;
31694;SDS011;18289;51.330;4.946;2022-10-31T15:38:58;14.68;;;9.30;;
31694;SDS011;18289;51.330;4.946;2022-10-31T15:44:14;14.63;;;9.73;;
31694;SDS011;18289;51.330;4.946;2022-10-31T15:46:42;14.98;;;9.77;;
31694;SDS011;18289;51.330;4.946;2022-10-31T15:52:04;13.68;;;9.30;;
31694;SDS011;18289;51.330;4.946;2022-10-31T15:54:52;15.43;;;9.27;;
31694;SDS011;18289;51.330;4.946;2022-10-31T15:57:20;17.90;;;9.47;;
31694;SDS011;18289;51.330;4.946;2022-10-31T15:59:48;19.15;;;9.10;;
31694;SDS011;18289;51.330;4.946;2022-10-31T16:02:17;15.23;;;9.55;;
31694;SDS011;18289;51.330;4.946;2022-10-31T16:04:56;17.08;;;10.10;;
31694;SDS011;18289;51.330;4.946;2022-10-31T16:07:23;16.67;;;9.98;;
31694;SDS011;18289;51.330;4.946;2022-10-31T16:12:35;14.38;;;9.02;;
31694;SDS011;18289;51.330;4.946;2022-10-31T16:15:02;15.82;;;9.95;;
31694;SDS011;18289;51.330;4.946;2022-10-31T16:17:29;14.50;;;10.40;;
31694;SDS011;18289;51.330;4.946;2022-10-31T16:19:57;20.80;;;10.98;;
31694;SDS011;18289;51.330;4.946;2022-10-31T16:22:29;19.05;;;10.07;;
31694;SDS011;18289;51.330;4.946;2022-10-31T16:27:31;18.17;;;10.70;;
31694;SDS011;18289;51.330;4.946;2022-10-31T16:29:59;25.45;;;11.82;;
31694;SDS011;18289;51.330;4.946;2022-10-31T16:32:35;21.13;;;10.93;;
31694;SDS011;18289;51.330;4.946;2022-10-31T16:35:17;19.92;;;11.60;;
31694;SDS011;18289;51.330;4.946;2022-10-31T16:38:04;20.08;;;10.65;;
31694;SDS011;18289;51.330;4.946;2022-10-31T16:40:30;18.40;;;11.73;;
31694;SDS011;18289;51.330;4.946;2022-10-31T16:42:57;21.33;;;11.88;;
31694;SDS011;18289;51.330;4.946;2022-10-31T16:45:27;15.82;;;10.93;;
31694;SDS011;18289;51.330;4.946;2022-10-31T16:48:01;17.05;;;11.43;;
31694;SDS011;18289;51.330;4.946;2022-10-31T16:50:31;16.55;;;10.93;;
31694;SDS011;18289;51.330;4.946;2022-10-31T16:52:57;16.58;;;11.57;;
31694;SDS011;18289;51.330;4.946;2022-10-31T16:55:23;18.92;;;12.27;;
31694;SDS011;18289;51.330;4.946;2022-10-31T16:57:52;17.30;;;11.63;;
31694;SDS011;18289;51.330;4.946;2022-10-31T17:00:25;20.90;;;13.32;;
31694;SDS011;18289;51.330;4.946;2022-10-31T17:02:53;20.08;;;13.18;;
31694;SDS011;18289;51.330;4.946;2022-10-31T17:05:23;23.77;;;13.23;;
31694;SDS011;18289;51.330;4.946;2022-10-31T17:07:54;22.02;;;12.05;;